Time;durP1;ratioP1;P1;durP2;ratioP2;P2;SDS_P1;SDS_P2;PMS_P1;PMS_P2;Temp;Humidity;BMP_temperature;BMP_pressure;BME280_temperature;BME280_humidity;BME280_pressure;Samples;Min_cycle;Max_cycle;Signal;HPM_P1;HPM_P2
2024/04/08 00:08:03;;;;;;;0.77;0.40;;;10.10;95.50;;;;;;21250267;27;20035;-39
2024/04/08 00:18:05;;;;;;;1.52;0.50;;;9.90;94.00;;;;;;21250169;27;20038;-39
2024/04/08 00:28:07;;;;;;;2.13;0.50;;;9.90;95.40;;;;;;21248597;27;20039;-39
2024/04/08 00:38:09;;;;;;;1.02;0.60;;;9.90;95.40;;;;;;21247634;27;20084;-39
2024/04/08 00:48:14;;;;;;;1.40;0.40;;;10.20;93.90;;;;;;21246733;27;20076;-39
2024/04/08 00:58:19;;;;;;;0.85;0.40;;;10.40;93.20;;;;;;21220650;27;20092;-39
2024/04/08 01:08:21;;;;;;;0.55;0.40;;;10.80;90.80;;;;;;21218900;27;20031;-39
2024/04/08 01:18:23;;;;;;;0.85;0.30;;;11.20;91.50;;;;;;21227189;27;20425;-39
2024/04/08 01:28:24;;;;;;;0.45;0.30;;;10.80;90.50;;;;;;21240785;27;20047;-39
2024/04/08 01:38:27;;;;;;;0.90;0.40;;;11.00;90.20;;;;;;21225018;27;20497;-39
2024/04/08 01:48:29;;;;;;;0.40;0.20;;;11.20;90.50;;;;;;21242305;27;20027;-39
2024/04/08 01:58:33;;;;;;;0.43;0.20;;;11.40;86.20;;;;;;21222694;27;20119;-39
2024/04/08 02:08:35;;;;;;;0.73;0.20;;;11.80;85.40;;;;;;21221863;27;20023;-39
2024/04/08 02:18:37;;;;;;;1.20;0.30;;;11.20;90.30;;;;;;21240443;27;20031;-39
2024/04/08 02:28:39;;;;;;;0.63;0.30;;;11.20;86.70;;;;;;21235757;27;20150;-39
2024/04/08 02:38:41;;;;;;;0.68;0.20;;;11.20;85.10;;;;;;21214920;27;20031;-39
2024/04/08 02:48:43;;;;;;;0.93;0.20;;;11.40;82.60;;;;;;21235544;27;20035;-40
2024/04/08 02:58:48;;;;;;;1.15;0.20;;;11.30;84.20;;;;;;21234477;27;20393;-39
2024/04/08 03:08:49;;;;;;;0.55;0.20;;;11.10;84.80;;;;;;21230893;27;20031;-40
2024/04/08 03:18:51;;;;;;;0.35;0.20;;;11.20;83.40;;;;;;21236650;27;20031;-39
2024/04/08 03:28:53;;;;;;;0.63;0.20;;;11.20;83.50;;;;;;21235857;28;20039;-39
2024/04/08 03:38:55;;;;;;;0.55;0.28;;;11.30;82.90;;;;;;21217103;28;20350;-39
2024/04/08 03:48:58;;;;;;;0.47;0.20;;;11.30;84.50;;;;;;21214839;28;20076;-39
2024/04/08 03:58:59;;;;;;;2.00;0.40;;;11.40;85.60;;;;;;21234394;28;20069;-39
2024/04/08 04:09:03;;;;;;;1.45;0.40;;;11.80;87.00;;;;;;21199066;28;20095;-40
2024/04/08 04:19:07;;;;;;;0.40;0.30;;;12.00;88.10;;;;;;21238310;27;20103;-39
2024/04/08 04:29:09;;;;;;;2.28;0.30;;;11.60;89.60;;;;;;21249874;27;20528;-40
2024/04/08 04:39:11;;;;;;;1.08;0.30;;;11.10;91.40;;;;;;21248337;27;20476;-39
2024/04/08 04:49:13;;;;;;;0.52;0.45;;;10.50;92.50;;;;;;21246628;27;20051;-39
2024/04/08 04:59:15;;;;;;;1.15;0.43;;;10.20;92.80;;;;;;21246360;27;20062;-39
2024/04/08 05:09:17;;;;;;;0.38;0.20;;;10.00;93.10;;;;;;21245605;27;20035;-39
2024/04/08 05:19:18;;;;;;;0.90;0.40;;;10.30;93.10;;;;;;21245275;27;20028;-39
2024/04/08 05:29:23;;;;;;;0.82;0.38;;;10.60;93.80;;;;;;21224569;27;20088;-39
2024/04/08 05:39:25;;;;;;;0.65;0.40;;;11.10;94.20;;;;;;21239615;27;20039;-39
2024/04/08 05:49:26;;;;;;;2.88;0.70;;;11.40;94.90;;;;;;21240336;27;20143;-39
2024/04/08 05:59:28;;;;;;;2.78;0.60;;;12.00;95.70;;;;;;21239076;27;20392;-39
2024/04/08 06:09:30;;;;;;;1.00;0.45;;;12.80;95.40;;;;;;21222068;27;20031;-40
2024/04/08 06:19:35;;;;;;;0.90;0.50;;;13.50;96.20;;;;;;21240015;27;20023;-40
2024/04/08 06:29:37;;;;;;;2.17;0.70;;;14.00;96.00;;;;;;21232323;27;20035;-39
2024/04/08 06:39:39;;;;;;;2.83;0.70;;;14.40;95.50;;;;;;21234680;27;20080;-39
2024/04/08 06:49:41;;;;;;;11.35;8.75;;;14.10;94.50;;;;;;21216493;27;20031;-39
2024/04/08 06:59:43;;;;;;;3.20;1.80;;;13.80;95.90;;;;;;21235066;27;20436;-39
2024/04/08 07:09:48;;;;;;;1.52;0.75;;;13.40;95.70;;;;;;21233653;27;20068;-40
2024/04/08 07:21:29;;;;;;;0.80;0.40;;;13.00;96.10;;;;;;22477305;26;20470;-40
2024/04/08 07:31:31;;;;;;;5.10;3.15;;;14.60;94.40;;;;;;22475400;26;20035;-44
2024/04/08 07:41:34;;;;;;;1.10;0.60;;;16.60;94.30;;;;;;22474118;26;20031;-43
2024/04/08 07:51:35;;;;;;;2.78;0.60;;;18.70;91.90;;;;;;22468830;26;20032;-42
2024/04/08 08:01:37;;;;;;;1.75;0.73;;;20.20;91.70;;;;;;22470207;26;20093;-44
2024/04/08 08:11:39;;;;;;;1.42;0.80;;;21.10;90.90;;;;;;22473515;26;20027;-42
2024/04/08 08:21:41;;;;;;;1.33;0.73;;;21.40;90.20;;;;;;22471870;26;20436;-42
2024/04/08 08:31:42;;;;;;;1.92;0.70;;;21.50;90.70;;;;;;22413155;26;20031;-43
2024/04/08 08:41:54;;;;;;;2.63;0.90;;;22.00;90.30;;;;;;22407725;26;20043;-47
2024/04/08 08:51:56;;;;;;;1.58;0.93;;;22.50;93.50;;;;;;22410628;26;20430;-42
2024/04/08 09:01:59;;;;;;;2.15;0.98;;;22.50;90.20;;;;;;22404866;26;20038;-45
2024/04/08 09:12:01;;;;;;;1.27;0.70;;;22.60;90.20;;;;;;22401373;26;20031;-47
2024/04/08 09:22:03;;;;;;;2.13;0.90;;;22.70;88.40;;;;;;22402465;26;20028;-43
2024/04/08 09:32:08;;;;;;;1.75;1.00;;;22.80;89.40;;;;;;22402456;26;20505;-44
2024/04/08 09:42:12;;;;;;;2.20;1.40;;;23.00;87.30;;;;;;22402969;26;20372;-44
2024/04/08 09:52:19;;;;;;;7.18;1.85;;;23.00;88.90;;;;;;22357760;26;20664;-42
2024/04/08 10:02:36;;;;;;;3.03;1.70;;;23.40;91.40;;;;;;22359760;26;20057;-46
2024/04/08 10:12:43;;;;;;;2.53;1.60;;;23.60;90.80;;;;;;22352302;26;20000;-42
2024/04/08 10:22:46;;;;;;;3.88;2.47;;;23.30;91.00;;;;;;22402776;26;20039;-43
2024/04/08 10:32:48;;;;;;;3.25;2.30;;;23.40;92.00;;;;;;22405361;26;20063;-46
2024/04/08 10:42:53;;;;;;;3.30;2.33;;;23.90;92.10;;;;;;22405116;26;20044;-43
2024/04/08 10:52:55;;;;;;;6.03;2.95;;;23.80;92.50;;;;;;22400439;26;20117;-43
2024/04/08 11:02:57;;;;;;;5.72;3.60;;;23.60;92.30;;;;;;22394943;26;20891;-45
2024/04/08 11:13:00;;;;;;;5.22;3.40;;;23.40;92.20;;;;;;22398881;26;20035;-45
2024/04/08 11:23:05;;;;;;;5.35;3.15;;;23.40;91.70;;;;;;22396352;26;20036;-43
2024/04/08 11:33:07;;;;;;;6.03;4.88;;;23.60;91.30;;;;;;22397528;26;20375;-43
2024/04/08 11:43:09;;;;;;;13.27;7.90;;;23.60;92.70;;;;;;22395197;26;20028;-44
2024/04/08 11:53:11;;;;;;;9.35;8.35;;;23.80;94.40;;;;;;22394201;26;20036;-43
2024/04/08 12:03:13;;;;;;;15.68;10.70;;;23.20;96.80;;;;;;22405731;26;20094;-42
2024/04/08 12:13:19;;;;;;;16.08;12.30;;;23.60;97.00;;;;;;22407065;26;20032;-43
2024/04/08 12:23:21;;;;;;;20.90;15.65;;;23.50;97.10;;;;;;22402564;26;20036;-41
2024/04/08 12:33:23;;;;;;;16.63;14.75;;;23.20;97.20;;;;;;22406793;26;20035;-45
2024/04/08 12:43:27;;;;;;;22.40;16.60;;;22.80;99.00;;;;;;22408015;26;20094;-42
2024/04/08 12:53:32;;;;;;;21.30;18.33;;;22.50;99.40;;;;;;22410857;26;20023;-42
2024/04/08 13:03:33;;;;;;;23.58;18.10;;;22.70;98.80;;;;;;22409525;26;20035;-41
2024/04/08 13:13:41;;;;;;;21.75;16.92;;;21.60;99.70;;;;;;22406619;26;20440;-43
2024/04/08 13:23:43;;;;;;;20.88;18.55;;;22.40;99.90;;;;;;22408434;26;20031;-44
2024/04/08 13:33:45;;;;;;;21.30;18.83;;;22.40;98.60;;;;;;22396701;26;20031;-42
2024/04/08 13:43:47;;;;;;;20.55;16.80;;;22.10;99.50;;;;;;22402980;26;20906;-42
2024/04/08 13:53:49;;;;;;;23.48;19.58;;;22.00;99.80;;;;;;22403470;26;20414;-42
2024/04/08 14:03:53;;;;;;;26.92;20.23;;;21.30;99.90;;;;;;22402799;26;20035;-44
2024/04/08 14:13:55;;;;;;;24.08;19.45;;;21.40;99.90;;;;;;22401645;26;20078;-42
2024/04/08 14:23:56;;;;;;;22.30;17.83;;;21.20;99.90;;;;;;22400342;26;20035;-43
2024/04/08 14:33:58;;;;;;;25.00;20.83;;;21.60;99.90;;;;;;22402605;26;20075;-42
2024/04/08 14:44:00;;;;;;;18.55;15.95;;;21.60;99.90;;;;;;22401837;26;20036;-44
2024/04/08 14:54:02;;;;;;;20.02;17.23;;;21.60;99.90;;;;;;22391366;26;20039;-43
2024/04/08 15:04:03;;;;;;;22.10;17.70;;;21.30;99.90;;;;;;22399160;26;20090;-43
2024/04/08 15:14:07;;;;;;;20.10;16.10;;;20.70;99.90;;;;;;22398993;26;20392;-42
2024/04/08 15:24:09;;;;;;;27.73;24.25;;;20.10;99.90;;;;;;22401871;26;20484;-43
2024/04/08 15:34:11;;;;;;;25.95;23.02;;;19.90;99.90;;;;;;22397765;26;20039;-43
2024/04/08 15:44:13;;;;;;;28.45;22.33;;;19.40;99.90;;;;;;22408698;26;20039;-42
2024/04/08 15:54:15;;;;;;;28.67;24.58;;;19.20;99.90;;;;;;22410332;26;20036;-42
2024/04/08 16:04:17;;;;;;;33.97;24.50;;;18.80;99.90;;;;;;22410140;26;20087;-43
2024/04/08 16:14:21;;;;;;;28.52;22.23;;;18.20;99.90;;;;;;22408840;26;20381;-42
2024/04/08 16:24:23;;;;;;;27.83;23.80;;;17.70;99.90;;;;;;22411624;26;20031;-44
2024/04/08 16:34:28;;;;;;;30.38;24.65;;;17.40;99.90;;;;;;22413646;26;20087;-42
2024/04/08 16:44:30;;;;;;;28.80;22.70;;;17.10;99.90;;;;;;22412364;26;20032;-41
2024/04/08 16:54:32;;;;;;;27.20;21.80;;;16.90;99.90;;;;;;22412841;26;20027;-42
2024/04/08 17:04:35;;;;;;;28.13;21.73;;;16.50;99.90;;;;;;22412390;26;20067;-41
2024/04/08 17:14:41;;;;;;;32.33;26.00;;;16.00;99.90;;;;;;22412514;26;20425;-41
2024/04/08 17:24:43;;;;;;;36.17;28.83;;;15.60;99.90;;;;;;22411436;26;20031;-42
2024/04/08 17:34:44;;;;;;;46.35;35.13;;;15.00;99.90;;;;;;22408729;26;20027;-41
2024/04/08 17:44:46;;;;;;;38.60;28.55;;;14.30;99.90;;;;;;22410521;26;20032;-40
2024/04/08 17:54:53;;;;;;;37.58;26.85;;;13.50;99.90;;;;;;22409316;26;20031;-40
2024/04/08 18:04:55;;;;;;;37.08;25.08;;;12.70;99.90;;;;;;22395159;26;20388;-39
2024/04/08 18:14:57;;;;;;;30.60;18.52;;;12.10;99.90;;;;;;22408922;26;20075;-39
2024/04/08 18:24:59;;;;;;;18.67;12.30;;;11.50;99.90;;;;;;22408590;26;20003;-39
2024/04/08 18:35:01;;;;;;;24.92;14.38;;;11.10;99.90;;;;;;22407165;26;20101;-39
2024/04/08 18:45:03;;;;;;;32.65;21.38;;;11.00;99.90;;;;;;22406874;26;20500;-39
2024/04/08 18:55:06;;;;;;;27.25;17.83;;;10.90;99.90;;;;;;22406454;26;20035;-40
2024/04/08 19:05:08;;;;;;;21.85;14.80;;;10.60;99.90;;;;;;22404783;26;20031;-39
2024/04/08 19:15:11;;;;;;;21.35;12.57;;;10.30;99.90;;;;;;22403697;26;20031;-39
2024/04/08 19:25:14;;;;;;;21.15;12.82;;;10.30;99.90;;;;;;22403996;26;20022;-39
2024/04/08 19:35:18;;;;;;;15.38;9.00;;;10.30;99.90;;;;;;22404015;26;20027;-40
2024/04/08 19:45:20;;;;;;;13.05;8.40;;;10.10;99.90;;;;;;22402950;26;20368;-40
2024/04/08 19:55:24;;;;;;;15.60;10.60;;;9.90;99.90;;;;;;22401451;26;20086;-39
2024/04/08 20:05:28;;;;;;;13.20;9.57;;;9.90;99.90;;;;;;22401074;26;20027;-39
2024/04/08 20:15:32;;;;;;;19.45;13.65;;;9.80;99.90;;;;;;22369097;26;20028;-38
2024/04/08 20:25:34;;;;;;;15.77;9.30;;;9.80;99.90;;;;;;22408908;26;20027;-39
2024/04/08 20:35:36;;;;;;;8.35;5.20;;;9.80;99.90;;;;;;22412372;26;20025;-39
2024/04/08 20:45:38;;;;;;;8.93;4.28;;;9.50;99.90;;;;;;22414204;26;20083;-39
2024/04/08 20:55:56;;;;;;;7.53;4.68;;;9.40;99.90;;;;;;22413060;26;20139;-39
2024/04/08 21:06:11;;;;;;;12.20;6.22;;;9.50;99.90;;;;;;22412978;26;20464;-39
2024/04/08 21:16:13;;;;;;;11.25;7.57;;;9.40;99.90;;;;;;22407572;26;20641;-39
2024/04/08 21:26:19;;;;;;;11.13;7.93;;;9.40;99.90;;;;;;22403181;26;20035;-39
2024/04/08 21:36:21;;;;;;;14.80;6.93;;;9.50;99.90;;;;;;22408921;26;20189;-39
2024/04/08 21:46:26;;;;;;;8.70;5.35;;;9.40;99.90;;;;;;22410792;26;20047;-39
2024/04/08 21:56:28;;;;;;;5.97;3.92;;;9.40;99.90;;;;;;22409451;26;20027;-38
2024/04/08 22:06:31;;;;;;;7.85;3.53;;;9.40;99.90;;;;;;22408760;26;20031;-39
2024/04/08 22:16:33;;;;;;;7.18;2.55;;;9.20;99.90;;;;;;22408731;26;20031;-39
2024/04/08 22:26:36;;;;;;;4.60;2.17;;;9.00;99.90;;;;;;22407991;26;20094;-39
2024/04/08 22:36:38;;;;;;;6.28;2.75;;;9.00;99.90;;;;;;22408399;26;20094;-39
2024/04/08 22:46:40;;;;;;;3.50;2.30;;;9.10;99.90;;;;;;22390464;26;20043;-39
2024/04/08 22:57:00;;;;;;;5.53;2.20;;;9.20;99.90;;;;;;22406129;26;20024;-39
2024/04/08 23:07:02;;;;;;;5.35;2.38;;;9.00;99.90;;;;;;22402204;26;20039;-39
2024/04/08 23:17:04;;;;;;;5.18;2.42;;;9.00;99.90;;;;;;22402717;26;20094;-39
2024/04/08 23:27:06;;;;;;;4.78;2.63;;;8.90;99.90;;;;;;22399008;26;20528;-38
2024/04/08 23:37:08;;;;;;;8.70;2.70;;;8.70;99.90;;;;;;22401329;26;20036;-39
2024/04/08 23:47:10;;;;;;;6.38;2.47;;;8.70;99.90;;;;;;22402590;26;20106;-39
2024/04/08 23:57:12;;;;;;;5.45;2.85;;;8.90;99.90;;;;;;22407272;26;20032;-39
